createdAt,value
2022-12-17T00:00:46.297Z,19.47
2022-12-17T00:03:33.107Z,23.53
2022-12-17T00:06:19.513Z,19.53
2022-12-17T00:09:05.757Z,24.50
2022-12-17T00:11:52.416Z,22.53
2022-12-17T00:14:42.788Z,21.67
2022-12-17T00:17:29.187Z,21.27
2022-12-17T00:20:15.832Z,23.17
2022-12-17T00:23:02.426Z,24.60
2022-12-17T00:25:48.979Z,24.40
2022-12-17T00:28:35.548Z,22.03
2022-12-17T00:31:22.298Z,27.90
2022-12-17T00:34:28.682Z,22.23
2022-12-17T00:37:15.657Z,26.10
2022-12-17T00:40:04.468Z,24.17
2022-12-17T00:42:50.576Z,24.77
2022-12-17T00:45:37.213Z,25.43
2022-12-17T00:48:23.722Z,25.33
2022-12-17T00:51:10.364Z,23.30
2022-12-17T00:53:57.130Z,22.47
2022-12-17T00:56:44.708Z,22.40
2022-12-17T00:59:32.207Z,23.90
2022-12-17T01:02:19.707Z,24.43
2022-12-17T01:05:06.381Z,19.73
2022-12-17T01:07:52.978Z,24.20
2022-12-17T01:10:42.938Z,18.10
2022-12-17T01:13:34.086Z,21.33
2022-12-17T01:16:26.632Z,24.87
2022-12-17T01:19:13.598Z,23.83
2022-12-17T01:22:00.610Z,20.97
2022-12-17T01:24:47.077Z,25.07
2022-12-17T01:27:33.782Z,20.57
2022-12-17T01:30:20.757Z,24.87
2022-12-17T01:33:07.346Z,24.63
2022-12-17T01:35:53.854Z,21.60
2022-12-17T01:38:40.494Z,23.53
2022-12-17T01:41:33.266Z,22.57
2022-12-17T01:45:14.795Z,22.80
2022-12-17T01:48:23.677Z,23.57
2022-12-17T01:51:14.703Z,21.53
2022-12-17T01:54:12.541Z,20.57
2022-12-17T01:57:02.346Z,27.23
2022-12-17T02:00:14.738Z,25.23
2022-12-17T02:03:02.674Z,21.43
2022-12-17T02:06:34.908Z,22.03
2022-12-17T02:10:13.861Z,23.87
2022-12-17T02:13:09.590Z,22.37
2022-12-17T02:16:26.021Z,21.87
2022-12-17T02:19:47.434Z,21.87
2022-12-17T02:23:00.832Z,22.07
2022-12-17T02:26:13.056Z,20.43
2022-12-17T02:29:05.421Z,29.20
2022-12-17T02:31:57.099Z,20.07
2022-12-17T02:34:44.019Z,23.80
2022-12-17T02:37:30.578Z,22.33
2022-12-17T02:40:17.733Z,23.50
2022-12-17T02:43:07.019Z,26.47
2022-12-17T02:45:56.538Z,27.13
2022-12-17T02:48:43.327Z,25.57
2022-12-17T02:51:30.651Z,22.43
2022-12-17T02:54:22.585Z,26.77
2022-12-17T02:57:09.444Z,38.27
2022-12-17T02:59:55.826Z,50.27
2022-12-17T03:02:43.466Z,49.77
2022-12-17T03:05:46.081Z,56.17
2022-12-17T03:08:32.798Z,48.77
2022-12-17T03:11:19.502Z,55.13
2022-12-17T03:14:05.907Z,37.67
2022-12-17T03:16:52.226Z,45.30
2022-12-17T03:19:38.825Z,52.43
2022-12-17T03:22:25.455Z,50.50
2022-12-17T03:25:11.867Z,36.43
2022-12-17T03:27:58.286Z,41.93
2022-12-17T03:30:48.888Z,48.53
2022-12-17T03:33:36.226Z,52.97
2022-12-17T03:36:22.893Z,43.27
2022-12-17T03:39:09.412Z,45.90
2022-12-17T03:41:55.499Z,78.17
2022-12-17T03:44:41.792Z,53.70
2022-12-17T03:47:28.418Z,47.50
2022-12-17T03:50:14.872Z,44.00
2022-12-17T03:53:01.555Z,46.93
2022-12-17T03:55:48.164Z,52.87
2022-12-17T03:58:34.148Z,50.23
2022-12-17T04:01:20.682Z,50.67
2022-12-17T04:04:07.349Z,65.90
2022-12-17T04:07:01.654Z,63.20
2022-12-17T04:09:47.884Z,60.30
2022-12-17T04:12:34.498Z,70.03
2022-12-17T04:15:20.732Z,59.47
2022-12-17T04:18:07.408Z,72.37
2022-12-17T04:20:53.989Z,115.13
2022-12-17T04:23:40.606Z,69.10
2022-12-17T04:26:28.289Z,53.93
2022-12-17T04:29:34.700Z,52.27
2022-12-17T04:32:21.143Z,65.27
2022-12-17T04:35:07.446Z,63.47
2022-12-17T04:37:53.940Z,54.43
2022-12-17T04:40:40.469Z,71.83
2022-12-17T04:43:30.532Z,59.43
2022-12-17T04:46:17.414Z,88.83
2022-12-17T04:49:03.875Z,50.00
2022-12-17T04:51:50.433Z,62.70
2022-12-17T04:54:36.688Z,56.73
2022-12-17T04:57:23.343Z,47.20
2022-12-17T05:00:09.417Z,45.13
2022-12-17T05:02:56.151Z,41.27
2022-12-17T05:05:42.679Z,37.13
2022-12-17T05:08:29.289Z,40.80
2022-12-17T05:11:24.940Z,37.17
2022-12-17T05:14:11.586Z,83.50
2022-12-17T05:16:57.958Z,46.13
2022-12-17T05:19:44.482Z,47.13
2022-12-17T05:22:31.034Z,41.47
2022-12-17T05:25:17.233Z,43.60
2022-12-17T05:28:05.845Z,49.70
2022-12-17T05:30:52.633Z,45.53
2022-12-17T05:33:39.174Z,49.53
2022-12-17T05:36:26.259Z,69.07
2022-12-17T05:39:12.925Z,45.20
2022-12-17T05:41:59.513Z,45.40
2022-12-17T05:44:45.955Z,56.10
2022-12-17T05:47:32.300Z,57.73
2022-12-17T05:50:18.751Z,43.53
2022-12-17T05:53:05.301Z,44.83
2022-12-17T05:55:51.528Z,53.03
2022-12-17T05:58:37.964Z,46.67
2022-12-17T06:01:24.980Z,85.40
2022-12-17T06:04:11.652Z,61.47
2022-12-17T06:06:58.244Z,46.70
2022-12-17T06:09:44.861Z,82.00
2022-12-17T06:12:30.910Z,65.23
2022-12-17T06:15:17.522Z,65.33
2022-12-17T06:18:16.902Z,54.67
2022-12-17T06:21:04.703Z,57.43
2022-12-17T06:23:51.071Z,79.43
2022-12-17T06:26:38.961Z,54.17
2022-12-17T06:29:25.687Z,51.67
2022-12-17T06:32:12.166Z,50.97
2022-12-17T06:34:58.463Z,43.87
2022-12-17T06:37:45.157Z,35.47
2022-12-17T06:40:31.703Z,35.90
2022-12-17T06:43:17.801Z,32.53
2022-12-17T06:46:04.383Z,29.57
2022-12-17T06:48:50.997Z,32.87
2022-12-17T06:51:37.706Z,25.70
2022-12-17T06:54:24.278Z,31.70
2022-12-17T06:57:10.702Z,32.67
2022-12-17T06:59:57.491Z,32.47
2022-12-17T07:02:43.774Z,34.40
2022-12-17T07:05:30.014Z,33.07
2022-12-17T07:08:18.548Z,40.87
2022-12-17T07:11:05.249Z,30.37
2022-12-17T07:13:51.686Z,36.03
2022-12-17T07:16:38.302Z,33.97
2022-12-17T07:19:27.392Z,26.57
2022-12-17T07:22:15.595Z,37.90
2022-12-17T07:25:02.071Z,40.10
2022-12-17T07:27:48.650Z,34.47
2022-12-17T07:30:35.265Z,51.93
2022-12-17T07:33:25.016Z,71.57
2022-12-17T07:36:12.116Z,169.80
2022-12-17T07:38:58.958Z,113.17
2022-12-17T07:41:45.619Z,63.57
2022-12-17T07:44:32.252Z,44.47
2022-12-17T07:47:18.956Z,44.40
2022-12-17T07:50:05.550Z,50.00
2022-12-17T07:52:52.127Z,37.17
2022-12-17T07:55:38.781Z,43.70
2022-12-17T07:58:28.963Z,38.47
2022-12-17T08:01:19.770Z,38.80
2022-12-17T08:04:06.427Z,42.13
2022-12-17T08:06:58.353Z,36.00
2022-12-17T08:09:46.917Z,45.30
2022-12-17T08:12:33.597Z,41.70
2022-12-17T08:15:20.123Z,34.30
2022-12-17T08:18:06.718Z,38.37
2022-12-17T08:20:53.460Z,39.60
2022-12-17T08:23:40.049Z,35.80
2022-12-17T08:26:26.492Z,29.63
2022-12-17T08:29:12.842Z,33.20
2022-12-17T08:31:58.985Z,39.70
2022-12-17T08:34:45.351Z,33.20
2022-12-17T08:37:31.813Z,47.80
2022-12-17T08:40:18.269Z,39.07
2022-12-17T08:43:04.531Z,37.73
2022-12-17T08:45:51.463Z,34.57
2022-12-17T08:48:38.201Z,37.17
2022-12-17T08:51:24.795Z,39.33
2022-12-17T08:54:11.220Z,35.37
2022-12-17T08:56:57.463Z,27.83
2022-12-17T08:59:43.782Z,42.67
2022-12-17T09:02:30.506Z,82.13
2022-12-17T09:05:17.018Z,44.67
2022-12-17T09:08:07.425Z,31.83
2022-12-17T09:10:54.023Z,38.67
2022-12-17T09:13:40.330Z,32.40
2022-12-17T09:16:26.826Z,32.87
2022-12-17T09:19:13.518Z,30.40
2022-12-17T09:22:00.037Z,36.37
2022-12-17T09:24:46.645Z,31.87
2022-12-17T09:27:33.403Z,36.70
2022-12-17T09:30:19.787Z,33.47
2022-12-17T09:33:06.305Z,31.60
2022-12-17T09:35:52.932Z,26.17
2022-12-17T09:38:39.421Z,33.53
2022-12-17T09:42:50.964Z,51.03
2022-12-17T09:45:54.975Z,31.40
2022-12-17T09:49:19.961Z,37.23
2022-12-17T09:52:06.483Z,40.60
2022-12-17T09:55:01.560Z,47.87
2022-12-17T09:57:53.763Z,39.70
2022-12-17T10:00:41.849Z,39.30
2022-12-17T10:03:42.620Z,58.87
2022-12-17T10:06:37.720Z,49.70
2022-12-17T10:09:35.450Z,46.07
2022-12-17T10:12:48.128Z,40.80
2022-12-17T10:15:34.987Z,33.50
2022-12-17T10:18:29.389Z,43.80
2022-12-17T10:21:27.126Z,36.00
2022-12-17T10:24:29.222Z,39.17
2022-12-17T10:27:15.801Z,46.33
2022-12-17T10:30:03.325Z,46.07
2022-12-17T10:32:49.716Z,38.93
2022-12-17T10:35:43.088Z,34.50
2022-12-17T10:38:49.968Z,36.63
2022-12-17T10:41:53.591Z,42.07
2022-12-17T10:44:45.760Z,35.33
2022-12-17T10:47:41.929Z,40.40
2022-12-17T10:50:38.083Z,55.13
2022-12-17T10:53:42.181Z,47.17
2022-12-17T10:56:44.258Z,44.47
2022-12-17T10:59:55.086Z,45.30
2022-12-17T11:02:48.290Z,41.10
2022-12-17T11:05:49.301Z,41.53
2022-12-17T11:08:36.829Z,55.67
2022-12-17T11:11:29.524Z,47.70
2022-12-17T11:14:26.855Z,42.03
2022-12-17T11:17:16.815Z,82.07
2022-12-17T11:20:33.313Z,43.97
2022-12-17T11:23:20.985Z,41.93
2022-12-17T11:26:43.765Z,61.53
2022-12-17T11:29:32.501Z,51.40
2022-12-17T11:32:27.595Z,73.73
2022-12-17T11:35:25.829Z,66.40
2022-12-17T11:38:31.464Z,68.67
2022-12-17T11:41:34.215Z,51.73
2022-12-17T11:44:35.553Z,47.37
2022-12-17T11:47:40.806Z,47.07
2022-12-17T11:51:17.668Z,53.50
2022-12-17T11:54:36.229Z,47.63
2022-12-17T11:57:56.505Z,49.60
2022-12-17T12:00:43.637Z,44.50
2022-12-17T12:04:22.212Z,44.17
2022-12-17T12:07:45.360Z,47.20
2022-12-17T12:10:53.688Z,43.57
2022-12-17T12:14:06.604Z,51.77
2022-12-17T12:17:25.689Z,46.53
2022-12-17T12:20:12.106Z,62.30
2022-12-17T12:23:32.154Z,51.73
2022-12-17T12:26:46.204Z,49.87
2022-12-17T12:30:34.323Z,52.40
2022-12-17T12:34:10.789Z,46.90
2022-12-17T12:36:59.669Z,39.50
2022-12-17T12:39:55.857Z,45.33
2022-12-17T12:43:03.904Z,42.07
2022-12-17T12:46:23.017Z,47.63
2022-12-17T12:49:47.356Z,42.17
2022-12-17T12:52:42.522Z,46.00
2022-12-17T12:55:29.873Z,44.87
2022-12-17T12:58:47.106Z,46.80
2022-12-17T13:01:33.896Z,46.33
2022-12-17T13:04:35.304Z,46.40
2022-12-17T13:07:04.227Z,46.77
2022-12-17T13:09:52.597Z,41.57
2022-12-17T13:12:31.805Z,45.80
2022-12-17T13:14:59.468Z,45.97
2022-12-17T13:17:38.892Z,48.87
2022-12-17T13:20:26.257Z,47.53
2022-12-17T13:23:18.237Z,47.33
2022-12-17T13:25:46.431Z,43.37
2022-12-17T13:28:29.392Z,48.97
2022-12-17T13:31:14.209Z,55.23
2022-12-17T13:33:58.999Z,44.03
2022-12-17T13:36:48.759Z,44.67
2022-12-17T13:39:40.540Z,39.33
2022-12-17T13:42:34.987Z,44.83
2022-12-17T13:45:03.688Z,34.83
2022-12-17T13:47:35.304Z,42.03
2022-12-17T13:50:38.097Z,40.50
2022-12-17T13:53:15.432Z,40.63
2022-12-17T13:55:53.850Z,47.07
2022-12-17T13:58:34.118Z,41.10
2022-12-17T14:01:11.629Z,54.23
2022-12-17T14:04:05.405Z,48.77
2022-12-17T14:06:37.312Z,52.97
2022-12-17T14:09:06.361Z,55.50
2022-12-17T14:11:56.354Z,48.03
2022-12-17T14:14:50.295Z,50.17
2022-12-17T14:17:28.394Z,55.42
2022-12-17T14:20:13.128Z,62.93
2022-12-17T14:22:51.377Z,47.40
2022-12-17T14:25:40.966Z,45.13
2022-12-17T14:28:36.508Z,44.17
2022-12-17T14:31:29.057Z,43.80
2022-12-17T14:34:11.910Z,47.63
2022-12-17T14:36:42.595Z,43.90
2022-12-17T14:39:33.416Z,41.03
2022-12-17T14:42:37.165Z,45.50
2022-12-17T14:45:24.901Z,45.80
2022-12-17T14:47:57.222Z,45.53
2022-12-17T14:50:36.661Z,38.37
2022-12-17T14:53:27.745Z,52.57
2022-12-17T14:55:59.405Z,45.57
2022-12-17T14:58:27.837Z,47.73
2022-12-17T15:01:14.673Z,38.33
2022-12-17T15:03:46.610Z,43.97
2022-12-17T15:06:19.134Z,49.00
2022-12-17T15:08:50.261Z,46.10
2022-12-17T15:11:22.064Z,48.47
2022-12-17T15:13:54.625Z,50.73
2022-12-17T15:16:24.426Z,57.70
2022-12-17T15:18:52.269Z,45.77
2022-12-17T15:21:20.598Z,65.80
2022-12-17T15:23:49.082Z,46.73
2022-12-17T15:26:17.459Z,53.50
2022-12-17T15:28:45.855Z,50.67
2022-12-17T15:31:17.720Z,52.70
2022-12-17T15:33:47.766Z,51.77
2022-12-17T15:36:15.536Z,53.83
2022-12-17T15:38:43.321Z,58.57
2022-12-17T15:41:29.760Z,54.23
2022-12-17T15:43:57.538Z,51.30
2022-12-17T15:46:25.451Z,50.40
2022-12-17T15:48:53.217Z,48.50
2022-12-17T15:51:21.321Z,45.93
2022-12-17T15:53:50.302Z,48.10
2022-12-17T15:56:25.673Z,45.07
2022-12-17T15:58:56.745Z,56.20
2022-12-17T16:01:25.243Z,52.30
2022-12-17T16:03:53.330Z,60.43
2022-12-17T16:06:21.199Z,62.20
2022-12-17T16:08:49.079Z,53.10
2022-12-17T16:11:16.922Z,60.23
2022-12-17T16:13:44.838Z,52.03
2022-12-17T16:16:12.657Z,50.00
2022-12-17T16:18:40.806Z,47.53
2022-12-17T16:21:09.850Z,57.80
2022-12-17T16:23:38.070Z,53.77
2022-12-17T16:26:08.283Z,48.87
2022-12-17T16:28:36.940Z,53.20
2022-12-17T16:31:09.254Z,53.03
2022-12-17T16:33:40.378Z,52.37
2022-12-17T16:36:13.305Z,49.40
2022-12-17T16:38:51.004Z,52.00
2022-12-17T16:41:21.339Z,58.97
2022-12-17T16:43:49.280Z,59.93
2022-12-17T16:46:40.124Z,53.00
2022-12-17T16:49:20.390Z,47.40
2022-12-17T16:51:51.450Z,45.13
2022-12-17T16:54:23.204Z,54.73
2022-12-17T16:56:51.948Z,44.90
2022-12-17T16:59:20.041Z,54.27
2022-12-17T17:01:50.957Z,54.83
2022-12-17T17:04:22.633Z,57.20
2022-12-17T17:06:56.743Z,58.17
2022-12-17T17:09:25.807Z,61.10
2022-12-17T17:11:58.751Z,56.57
2022-12-17T17:14:27.221Z,55.73
2022-12-17T17:16:55.149Z,53.40
2022-12-17T17:19:22.890Z,52.87
2022-12-17T17:21:54.108Z,45.23
2022-12-17T17:24:25.514Z,48.50
2022-12-17T17:26:55.261Z,45.17
2022-12-17T17:29:23.374Z,51.57
2022-12-17T17:34:40.011Z,47.40
2022-12-17T17:37:08.094Z,41.03
2022-12-17T17:39:36.276Z,45.57
2022-12-17T17:42:04.303Z,51.40
2022-12-17T17:44:32.515Z,47.00
2022-12-17T17:47:00.802Z,52.23
2022-12-17T17:49:28.954Z,54.27
2022-12-17T17:52:12.459Z,55.23
2022-12-17T17:54:40.858Z,52.17
2022-12-17T17:57:09.966Z,57.13
2022-12-17T17:59:39.584Z,54.20
2022-12-17T18:02:09.729Z,59.93
2022-12-17T18:04:37.855Z,55.63
2022-12-17T18:09:53.653Z,56.70
2022-12-17T18:12:40.324Z,52.20
2022-12-17T18:15:18.188Z,60.23
2022-12-17T18:17:51.339Z,57.30
2022-12-17T18:20:19.293Z,69.30
2022-12-17T18:22:47.425Z,83.40
2022-12-17T18:25:17.755Z,79.73
2022-12-17T18:27:45.654Z,86.53
2022-12-17T18:30:16.241Z,66.17
2022-12-17T18:32:44.306Z,69.77
2022-12-17T18:35:12.293Z,59.30
2022-12-17T18:37:40.141Z,53.37
2022-12-17T18:40:09.020Z,50.20
2022-12-17T18:42:55.613Z,60.20
2022-12-17T18:45:23.395Z,50.30
2022-12-17T18:47:51.452Z,55.30
2022-12-17T18:50:19.322Z,70.07
2022-12-17T18:52:47.062Z,66.67
2022-12-17T18:55:14.882Z,67.17
2022-12-17T18:57:42.667Z,56.77
2022-12-17T19:00:11.465Z,55.70
2022-12-17T19:02:39.436Z,54.87
2022-12-17T19:05:07.911Z,56.30
2022-12-17T19:07:35.719Z,56.23
2022-12-17T19:10:03.986Z,60.53
2022-12-17T19:12:32.542Z,60.77
2022-12-17T19:15:00.295Z,59.33
2022-12-17T19:17:28.080Z,56.07
2022-12-17T19:19:55.785Z,50.23
2022-12-17T19:22:23.571Z,60.63
2022-12-17T19:24:51.331Z,56.53
2022-12-17T19:27:19.155Z,53.70
2022-12-17T19:29:49.648Z,56.47
2022-12-17T19:32:19.413Z,59.93
2022-12-17T19:34:47.168Z,53.20
2022-12-17T19:37:14.949Z,55.40
2022-12-17T19:39:42.674Z,58.80
2022-12-17T19:42:24.555Z,59.87
2022-12-17T19:44:55.170Z,50.17
2022-12-17T19:47:24.022Z,73.40
2022-12-17T19:49:51.853Z,65.50
2022-12-17T19:52:19.676Z,62.77
2022-12-17T19:54:49.282Z,60.90
2022-12-17T19:57:17.061Z,53.20
2022-12-17T19:59:44.887Z,59.77
2022-12-17T20:02:12.816Z,50.07
2022-12-17T20:04:40.703Z,60.17
2022-12-17T20:07:08.453Z,53.87
2022-12-17T20:09:36.281Z,44.20
2022-12-17T20:12:04.466Z,47.80
2022-12-17T20:14:34.268Z,53.30
2022-12-17T20:17:02.811Z,51.27
2022-12-17T20:19:33.514Z,47.27
2022-12-17T20:22:04.985Z,50.37
2022-12-17T20:24:33.063Z,48.63
2022-12-17T20:27:01.521Z,58.37
2022-12-17T20:29:29.913Z,50.47
2022-12-17T20:31:58.235Z,47.10
2022-12-17T20:34:26.203Z,45.27
2022-12-17T20:36:54.736Z,48.20
2022-12-17T20:39:27.038Z,47.93
2022-12-17T20:41:56.926Z,47.72
2022-12-17T20:44:25.022Z,41.17
2022-12-17T20:46:52.949Z,53.07
2022-12-17T20:49:21.955Z,40.07
2022-12-17T20:51:49.752Z,40.10
2022-12-17T20:54:17.482Z,49.17
2022-12-17T20:56:45.362Z,49.47
2022-12-17T20:59:19.338Z,53.67
2022-12-17T21:01:51.682Z,50.83
2022-12-17T21:04:24.281Z,50.17
2022-12-17T21:06:52.177Z,53.13
2022-12-17T21:09:22.315Z,40.20
2022-12-17T21:11:50.173Z,39.23
2022-12-17T21:14:19.348Z,40.60
2022-12-17T21:16:48.060Z,40.77
2022-12-17T21:19:19.241Z,45.07
2022-12-17T21:21:47.675Z,52.57
2022-12-17T21:24:15.976Z,42.27
2022-12-17T21:26:47.179Z,35.93
2022-12-17T21:29:16.197Z,41.37
2022-12-17T21:31:50.258Z,35.70
2022-12-17T21:34:23.361Z,41.77
2022-12-17T21:36:52.080Z,42.38
2022-12-17T21:39:20.547Z,32.90
2022-12-17T21:42:07.974Z,49.40
2022-12-17T21:44:36.687Z,41.03
2022-12-17T21:47:04.966Z,41.50
2022-12-17T21:49:32.826Z,40.87
2022-12-17T21:52:01.818Z,41.47
2022-12-17T21:54:29.597Z,46.47
2022-12-17T21:56:57.395Z,37.27
2022-12-17T21:59:25.174Z,41.40
2022-12-17T22:01:54.277Z,36.00
2022-12-17T22:04:22.253Z,45.40
2022-12-17T22:07:00.391Z,45.57
2022-12-17T22:09:50.132Z,39.77
2022-12-17T22:12:43.834Z,44.37
2022-12-17T22:15:12.328Z,40.50
2022-12-17T22:17:42.300Z,48.70
2022-12-17T22:20:11.199Z,44.03
2022-12-17T22:22:39.082Z,39.43
2022-12-17T22:25:10.086Z,36.43
2022-12-17T22:27:40.732Z,32.77
2022-12-17T22:30:33.578Z,33.70
2022-12-17T22:33:03.545Z,34.90
2022-12-17T22:42:11.699Z,28.48
2022-12-17T22:44:37.338Z,41.67
2022-12-17T22:44:45.635Z,35.33
2022-12-17T22:47:12.880Z,36.60
2022-12-17T22:49:41.194Z,33.13
2022-12-17T22:52:11.934Z,38.57
2022-12-17T22:54:40.035Z,40.93
2022-12-17T22:57:27.041Z,40.63
2022-12-17T22:59:55.928Z,39.60
2022-12-17T23:02:24.040Z,37.87
2022-12-17T23:04:52.015Z,36.77
2022-12-17T23:07:19.803Z,38.73
2022-12-17T23:09:47.532Z,44.27
2022-12-17T23:12:34.127Z,29.43
2022-12-17T23:15:02.172Z,43.20
2022-12-17T23:17:30.677Z,36.03
2022-12-17T23:19:58.418Z,41.37
2022-12-17T23:22:26.183Z,34.67
2022-12-17T23:24:53.933Z,39.13
2022-12-17T23:27:21.715Z,33.37
2022-12-17T23:29:49.650Z,90.67
2022-12-17T23:32:17.426Z,84.53
2022-12-17T23:34:45.162Z,57.90
2022-12-17T23:37:13.011Z,64.73
2022-12-17T23:39:40.820Z,56.77
2022-12-17T23:42:08.606Z,45.53
2022-12-17T23:44:36.350Z,39.63
2022-12-17T23:47:04.260Z,41.23
2022-12-17T23:49:32.119Z,38.33
2022-12-17T23:51:59.918Z,39.57
2022-12-17T23:54:27.830Z,38.63
2022-12-17T23:56:55.619Z,40.80
2022-12-17T23:59:23.418Z,39.50
